ROMMA est une association bénévole à but non lucratif. Votre soutien est indispensable : ADHERER à ROMMA ou FAIRE un DON

Eygliers - (05, Hautes-Alpes)

Guillestrois (965 m)   Longitude: 6° 38' 04" E   Latitude: 44° 40' 37" N Station partenaire n°53
 

Détail journalier du     <<     >>

Température Precipitation Humidité Vent Dir Rafale Dir. rafale Ensol.
Heure (°C) (mm) (%) (km/h) (km/h) (min)
01:00 8.10566NNO21NNE0
02:00 7.90567NNO23NNO0
03:00 7.60564NNO18N0
04:00 7.40574NNE15N0
05:00 7.20515E16NNO0
06:00 6.40584N24NO0
07:00 6.50544NNE21NE0
08:00 6.40485N19NE0
09:00 6.70496NE26N10
10:00 7.305010N34NNO15
11:00 7.904519NNO35NO30
12:00 8.303916NNO40NNO5
13:00 9.90379S31NNO45
14:00 9.303510N32N60
15:00 8.604019NNO37NNO60
16:00 8.104118NO37NNO60
17:00 5.804719NNO52NNO35
18:00 5.104913NNO29NNO0
19:00 4.904914NNO29N0
20:00 4.705115NNO34NNO0
21:00 4.405117NNO44N0
22:00 4.804814NNO32NNO0
23:00 4.90499N37N0
minuit 5.00529N31NNO0

Graphique du 17-11-2018

 

Serveur OMMA